createdAt,value
2019-01-30T00:03:05.966Z,4.47
2019-01-30T00:07:09.817Z,6.27
2019-01-30T00:11:13.602Z,4.10
2019-01-30T00:15:18.648Z,4.03
2019-01-30T00:19:22.654Z,4.27
2019-01-30T00:23:26.645Z,4.37
2019-01-30T00:27:30.477Z,4.27
2019-01-30T00:31:34.271Z,4.87
2019-01-30T00:35:38.165Z,4.20
2019-01-30T00:39:42.049Z,5.33
2019-01-30T00:43:45.888Z,3.80
2019-01-30T00:47:49.799Z,4.53
2019-01-30T00:51:53.695Z,2.80
2019-01-30T00:55:57.616Z,4.60
2019-01-30T01:00:01.439Z,4.33
2019-01-30T01:04:05.386Z,5.40
2019-01-30T01:08:09.263Z,5.10
2019-01-30T01:12:13.175Z,4.37
2019-01-30T01:16:17.106Z,4.93
2019-01-30T01:20:20.901Z,3.57
2019-01-30T01:24:24.742Z,5.13
2019-01-30T01:28:28.594Z,4.93
2019-01-30T01:32:34.206Z,5.43
2019-01-30T01:36:38.019Z,5.10
2019-01-30T01:40:42.035Z,5.13
2019-01-30T01:44:45.861Z,4.67
2019-01-30T01:48:49.760Z,5.53
2019-01-30T01:52:53.687Z,6.57
2019-01-30T01:56:57.522Z,4.53
2019-01-30T02:01:01.413Z,4.57
2019-01-30T02:05:05.857Z,5.57
2019-01-30T02:09:10.930Z,5.30
2019-01-30T02:13:14.741Z,4.80
2019-01-30T02:17:18.670Z,5.37
2019-01-30T02:21:23.214Z,5.00
2019-01-30T02:25:27.205Z,5.27
2019-01-30T02:29:31.127Z,4.03
2019-01-30T02:33:35.178Z,3.80
2019-01-30T02:37:39.105Z,6.77
2019-01-30T02:41:42.995Z,4.50
2019-01-30T02:45:46.909Z,4.10
2019-01-30T02:49:50.954Z,4.77
2019-01-30T02:53:54.900Z,3.43
2019-01-30T02:57:58.650Z,4.73
2019-01-30T03:02:16.671Z,4.50
2019-01-30T03:06:20.530Z,4.80
2019-01-30T03:10:24.482Z,5.40
2019-01-30T03:14:28.538Z,5.10
2019-01-30T03:18:32.426Z,4.37
2019-01-30T03:22:36.373Z,7.00
2019-01-30T03:26:40.321Z,4.70
2019-01-30T03:30:44.245Z,4.27
2019-01-30T03:34:48.199Z,3.67
2019-01-30T03:38:51.973Z,4.83
2019-01-30T03:42:55.846Z,4.17
2019-01-30T03:46:59.755Z,4.70
2019-01-30T03:51:03.563Z,5.03
2019-01-30T03:55:08.176Z,6.67
2019-01-30T04:04:16.939Z,5.07
2019-01-30T04:08:20.871Z,5.00
2019-01-30T04:12:24.821Z,3.37
2019-01-30T04:16:28.742Z,5.13
2019-01-30T04:20:32.887Z,5.73
2019-01-30T04:24:37.644Z,3.77
2019-01-30T04:28:42.530Z,4.60
2019-01-30T04:32:47.414Z,4.73
2019-01-30T04:36:52.297Z,5.93
2019-01-30T04:40:57.121Z,4.77
2019-01-30T04:45:02.149Z,4.13
2019-01-30T04:49:07.009Z,4.70
2019-01-30T04:53:10.898Z,5.43
2019-01-30T04:57:14.852Z,5.87
2019-01-30T05:01:18.721Z,5.20
2019-01-30T05:05:22.641Z,6.97
2019-01-30T05:09:26.510Z,4.27
2019-01-30T05:13:30.436Z,4.03
2019-01-30T05:17:34.435Z,4.27
2019-01-30T05:21:38.228Z,4.87
2019-01-30T05:25:42.159Z,5.57
2019-01-30T05:29:46.159Z,4.40
2019-01-30T05:33:50.147Z,5.83
2019-01-30T05:37:54.043Z,6.80
2019-01-30T05:41:57.888Z,4.60
2019-01-30T05:46:01.751Z,5.90
2019-01-30T05:50:06.644Z,5.20
2019-01-30T05:54:11.823Z,5.67
2019-01-30T05:58:15.756Z,4.10
2019-01-30T06:02:19.875Z,4.83
2019-01-30T06:06:23.763Z,6.03
2019-01-30T06:10:27.577Z,4.40
2019-01-30T06:14:31.409Z,4.40
2019-01-30T06:18:35.433Z,5.10
2019-01-30T06:22:39.346Z,18.40
2019-01-30T06:26:43.345Z,22.30
2019-01-30T06:30:47.333Z,23.07
2019-01-30T06:34:51.195Z,8.33
2019-01-30T06:38:55.007Z,11.00
2019-01-30T06:42:58.891Z,7.90
2019-01-30T06:47:02.770Z,9.17
2019-01-30T06:51:06.717Z,5.00
2019-01-30T06:55:10.676Z,4.03
2019-01-30T06:59:14.610Z,4.43
2019-01-30T07:03:18.436Z,3.83
2019-01-30T07:07:22.263Z,3.37
2019-01-30T07:11:26.146Z,4.73
2019-01-30T07:15:30.097Z,3.13
2019-01-30T07:19:34.045Z,4.00
2019-01-30T07:23:37.991Z,3.73
2019-01-30T07:27:41.971Z,3.77
2019-01-30T07:31:45.971Z,4.73
2019-01-30T07:35:49.991Z,3.80
2019-01-30T07:39:53.827Z,4.43
2019-01-30T07:43:57.791Z,3.10
2019-01-30T07:48:01.722Z,5.27
2019-01-30T07:52:05.647Z,5.20
2019-01-30T07:56:09.623Z,3.43
2019-01-30T08:00:15.034Z,3.87
2019-01-30T08:04:18.900Z,3.57
2019-01-30T08:08:22.843Z,3.60
2019-01-30T08:12:26.680Z,3.53
2019-01-30T08:16:30.559Z,3.37
2019-01-30T08:20:34.461Z,4.23
2019-01-30T08:24:38.397Z,4.13
2019-01-30T08:28:42.718Z,3.33
2019-01-30T08:32:46.642Z,3.27
2019-01-30T08:36:50.578Z,3.87
2019-01-30T08:40:54.437Z,3.67
2019-01-30T08:44:58.448Z,3.73
2019-01-30T08:49:02.538Z,5.33
2019-01-30T08:53:06.355Z,3.80
2019-01-30T08:57:10.203Z,4.03
2019-01-30T09:01:14.110Z,3.37
2019-01-30T09:05:18.175Z,4.20
2019-01-30T09:09:22.156Z,3.83
2019-01-30T09:13:25.980Z,3.30
2019-01-30T09:17:31.091Z,3.40
2019-01-30T09:21:35.122Z,3.63
2019-01-30T09:25:38.962Z,4.20
2019-01-30T09:29:42.915Z,4.10
2019-01-30T09:33:46.825Z,3.53
2019-01-30T09:37:50.883Z,3.73
2019-01-30T09:41:54.836Z,4.37
2019-01-30T09:47:32.682Z,4.03
2019-01-30T09:51:36.670Z,3.70
2019-01-30T09:55:40.608Z,3.73
2019-01-30T09:59:44.487Z,3.87
2019-01-30T10:03:48.347Z,3.63
2019-01-30T10:07:52.253Z,4.43
2019-01-30T10:11:56.174Z,3.80
2019-01-30T10:16:00.364Z,3.63
2019-01-30T10:20:04.953Z,4.40
2019-01-30T10:24:09.006Z,3.90
2019-01-30T10:28:16.556Z,4.10
2019-01-30T10:32:18.881Z,3.30
2019-01-30T10:36:22.778Z,4.33
2019-01-30T10:40:26.621Z,4.93
2019-01-30T10:44:30.749Z,3.87
2019-01-30T10:48:36.473Z,3.40
2019-01-30T10:52:40.286Z,4.23
2019-01-30T10:56:44.085Z,4.20
2019-01-30T11:00:49.035Z,3.57
2019-01-30T11:04:53.131Z,5.03
2019-01-30T11:08:57.042Z,4.53
2019-01-30T11:13:00.993Z,4.70
2019-01-30T11:17:04.946Z,4.90
2019-01-30T11:21:09.995Z,6.27
2019-01-30T11:25:15.438Z,4.03
2019-01-30T11:29:19.368Z,4.17
2019-01-30T11:33:23.199Z,3.73
2019-01-30T11:37:27.121Z,3.87
2019-01-30T11:41:31.112Z,5.33
2019-01-30T11:45:37.163Z,4.33
2019-01-30T11:49:40.961Z,4.87
2019-01-30T11:53:44.987Z,4.90
2019-01-30T11:57:49.023Z,5.07
2019-01-30T12:01:52.983Z,5.00
2019-01-30T12:05:57.141Z,5.00
2019-01-30T12:10:01.106Z,5.10
2019-01-30T12:14:05.010Z,59.23
2019-01-30T12:18:08.957Z,58.97
2019-01-30T12:22:12.937Z,33.30
2019-01-30T12:26:16.837Z,23.63
2019-01-30T12:30:21.650Z,20.77
2019-01-30T12:34:28.234Z,15.57
2019-01-30T12:38:31.310Z,11.77
2019-01-30T12:42:35.157Z,11.03
2019-01-30T12:46:39.237Z,21.03
2019-01-30T12:50:43.146Z,14.80
2019-01-30T12:54:47.077Z,14.13
2019-01-30T12:58:51.021Z,21.13
2019-01-30T13:02:54.882Z,20.47
2019-01-30T13:06:58.807Z,18.30
2019-01-30T13:11:02.687Z,13.53
2019-01-30T13:15:07.730Z,24.17
2019-01-30T13:19:11.642Z,8.73
2019-01-30T13:23:15.483Z,21.47
2019-01-30T13:27:19.545Z,33.00
2019-01-30T13:31:23.552Z,20.87
2019-01-30T13:35:27.520Z,19.23
2019-01-30T13:39:31.565Z,18.87
2019-01-30T13:43:35.474Z,42.70
2019-01-30T13:47:39.550Z,44.73
2019-01-30T13:51:43.483Z,47.13
2019-01-30T13:55:47.316Z,13.23
2019-01-30T13:59:51.226Z,13.03
2019-01-30T14:03:55.046Z,9.83
2019-01-30T14:07:59.202Z,11.80
2019-01-30T14:12:03.167Z,8.87
2019-01-30T14:16:08.467Z,10.23
2019-01-30T14:20:12.670Z,16.17
2019-01-30T14:24:16.723Z,17.93
2019-01-30T14:28:20.654Z,14.23
2019-01-30T14:32:24.688Z,7.70
2019-01-30T14:36:28.650Z,9.47
2019-01-30T14:40:32.626Z,5.40
2019-01-30T14:44:36.581Z,5.17
2019-01-30T14:48:40.429Z,5.20
2019-01-30T14:52:44.434Z,3.77
2019-01-30T14:56:48.656Z,3.57
2019-01-30T15:00:52.586Z,2.97
2019-01-30T15:04:56.617Z,3.53
2019-01-30T15:09:00.674Z,3.20
2019-01-30T15:13:05.460Z,4.97
2019-01-30T15:17:09.382Z,4.60
2019-01-30T15:21:13.385Z,4.63
2019-01-30T15:25:17.704Z,3.83
2019-01-30T15:29:21.586Z,3.33
2019-01-30T15:33:25.771Z,3.80
2019-01-30T15:37:29.876Z,3.17
2019-01-30T15:41:33.931Z,3.70
2019-01-30T15:45:37.738Z,2.70
2019-01-30T15:49:41.808Z,2.37
2019-01-30T15:53:45.623Z,2.23
2019-01-30T15:57:52.468Z,3.37
2019-01-30T16:01:56.561Z,3.87
2019-01-30T16:06:00.433Z,2.60
2019-01-30T16:10:05.112Z,3.00
2019-01-30T16:14:09.884Z,2.60
2019-01-30T16:18:13.942Z,3.10
2019-01-30T16:22:18.212Z,2.77
2019-01-30T16:26:22.191Z,3.33
2019-01-30T16:30:26.167Z,3.13
2019-01-30T16:34:30.117Z,2.57
2019-01-30T16:38:34.117Z,3.50
2019-01-30T16:42:38.303Z,2.83
2019-01-30T16:46:42.206Z,3.00
2019-01-30T16:50:46.234Z,3.57
2019-01-30T16:54:50.313Z,3.27
2019-01-30T16:58:54.174Z,3.97
2019-01-30T17:02:59.250Z,3.10
2019-01-30T17:07:03.294Z,2.83
2019-01-30T17:11:07.244Z,3.50
2019-01-30T17:15:12.561Z,4.97
2019-01-30T17:19:16.506Z,4.67
2019-01-30T17:23:20.381Z,3.40
2019-01-30T17:27:24.220Z,3.00
2019-01-30T17:31:29.370Z,5.17
2019-01-30T17:35:33.365Z,3.87
2019-01-30T17:39:37.385Z,3.37
2019-01-30T17:43:41.335Z,3.17
2019-01-30T17:47:45.179Z,3.33
2019-01-30T17:51:49.098Z,3.33
2019-01-30T17:55:54.261Z,4.10
2019-01-30T17:59:58.098Z,4.17
2019-01-30T18:04:02.916Z,5.97
2019-01-30T18:08:06.981Z,5.97
2019-01-30T18:12:10.902Z,4.20
2019-01-30T18:16:14.854Z,3.87
2019-01-30T18:20:18.810Z,4.07
2019-01-30T18:24:24.419Z,3.77
2019-01-30T18:28:28.430Z,3.57
2019-01-30T18:32:32.351Z,2.73
2019-01-30T18:36:41.088Z,3.77
2019-01-30T18:40:41.838Z,2.57
2019-01-30T18:44:45.617Z,2.93
2019-01-30T18:48:49.573Z,2.87
2019-01-30T18:52:53.446Z,2.83
2019-01-30T18:56:57.445Z,3.50
2019-01-30T19:01:01.347Z,2.77
2019-01-30T19:05:06.017Z,4.43
2019-01-30T19:09:12.672Z,2.13
2019-01-30T19:13:17.702Z,2.37
2019-01-30T19:17:21.539Z,2.77
2019-01-30T19:21:25.460Z,2.43
2019-01-30T19:25:29.434Z,2.53
2019-01-30T19:29:33.396Z,1.97
2019-01-30T19:33:37.213Z,2.37
2019-01-30T19:37:41.158Z,3.33
2019-01-30T19:41:45.110Z,3.00
2019-01-30T19:45:49.154Z,2.70
2019-01-30T19:49:53.027Z,2.57
2019-01-30T19:53:56.921Z,2.53
2019-01-30T19:58:01.005Z,3.03
2019-01-30T20:02:07.432Z,3.87
2019-01-30T20:06:11.346Z,3.23
2019-01-30T20:10:19.510Z,2.33
2019-01-30T20:14:23.489Z,2.37
2019-01-30T20:18:27.594Z,2.60
2019-01-30T20:22:31.629Z,4.73
2019-01-30T20:26:35.587Z,2.37
2019-01-30T20:30:39.495Z,2.40
2019-01-30T20:34:43.520Z,2.20
2019-01-30T20:38:47.630Z,2.13
2019-01-30T20:42:52.863Z,3.73
2019-01-30T20:46:56.943Z,2.07
2019-01-30T20:51:00.811Z,3.00
2019-01-30T20:55:05.217Z,3.30
2019-01-30T20:59:09.082Z,3.03
2019-01-30T21:03:15.736Z,2.33
2019-01-30T21:07:19.749Z,1.67
2019-01-30T21:11:23.659Z,3.30
2019-01-30T21:15:27.505Z,2.23
2019-01-30T21:19:31.642Z,5.30
2019-01-30T21:23:35.617Z,4.43
2019-01-30T21:27:39.552Z,2.37
2019-01-30T21:31:43.477Z,3.23
2019-01-30T21:35:47.521Z,5.00
2019-01-30T21:39:51.455Z,10.23
2019-01-30T21:43:55.282Z,3.73
2019-01-30T21:47:59.324Z,5.43
2019-01-30T21:52:03.129Z,5.03
2019-01-30T21:56:09.918Z,5.80
2019-01-30T22:00:15.673Z,7.73
2019-01-30T22:04:19.614Z,8.33
2019-01-30T22:08:23.561Z,6.73
2019-01-30T22:12:27.379Z,7.50
2019-01-30T22:16:31.273Z,9.07
2019-01-30T22:20:35.320Z,4.83
2019-01-30T22:24:39.369Z,5.23
2019-01-30T22:28:43.317Z,6.60
2019-01-30T22:32:47.167Z,2.63
2019-01-30T22:36:51.033Z,3.70
2019-01-30T22:40:55.125Z,4.53
2019-01-30T22:44:59.131Z,4.90
2019-01-30T22:49:03.012Z,5.40
2019-01-30T22:53:06.937Z,3.33
2019-01-30T22:57:10.977Z,2.60
2019-01-30T23:01:23.111Z,4.13
2019-01-30T23:05:32.561Z,3.40
2019-01-30T23:09:45.661Z,4.33
2019-01-30T23:13:52.405Z,2.53
2019-01-30T23:18:09.104Z,3.77
2019-01-30T23:22:17.519Z,4.97
2019-01-30T23:26:24.690Z,2.93
2019-01-30T23:30:47.960Z,2.63
2019-01-30T23:35:11.306Z,3.60
2019-01-30T23:39:34.675Z,2.60
2019-01-30T23:43:58.006Z,2.83
2019-01-30T23:48:20.870Z,2.47
2019-01-30T23:52:44.270Z,2.20
2019-01-30T23:56:59.207Z,1.90
